This is the latest recevied weather packets stored in our database for station/object JH7MHZ-13. If no packets are shown the sender has not sent any weather packets the latest 10 day(s).
| Time | Temp. | Humidity | Pressure | Rain* | Wind** | Luminosity | Snow |
|---|---|---|---|---|---|---|---|
| 1777943269 | 12.78° C | 74% | 997.2 hPa | 0 mm | - | - | - |
| 1777939667 | 10° C | 78% | 997 hPa | 0 mm | - | - | - |
| 1777936067 | 8.33° C | 87% | 996.8 hPa | 0 mm | - | - | - |
| 1777932466 | 7.22° C | 89% | 996.1 hPa | 0 mm | - | - | - |
| 1777928866 | 5.56° C | 91% | 995.2 hPa | 0 mm | - | - | - |
| 1777925265 | 5° C | 91% | 994 hPa | 0 mm | - | - | - |
| 1777921665 | 5° C | 88% | 992.2 hPa | 0 mm | - | - | - |
| 1777918064 | 5.56° C | 85% | 990.8 hPa | 0 mm | - | - | - |
| 1777914463 | 6.67° C | 87% | 988.5 hPa | 0 mm | - | - | - |
| 1777910863 | 6.67° C | 90% | 987.8 hPa | 0 mm | - | - | - |
| 1777907262 | 6.67° C | 90% | 986.7 hPa | 0 mm | - | - | - |
| 1777903663 | 6.67° C | 91% | 984.9 hPa | 1.27 mm | - | - | - |
| 1777892860 | 9.44° C | 91% | 979.4 hPa | 0 mm | - | - | - |
| 1777889261 | 10.56° C | 89% | 977.7 hPa | 0 mm | - | - | - |
| 1777885660 | 12.22° C | 86% | 976.6 hPa | 0 mm | - | - | - |
| 1777882058 | 13.33° C | 88% | 975.9 hPa | 0 mm | - | - | - |
| 1777878458 | 13.33° C | 94% | 975 hPa | 2.03 mm | - | - | - |
| 1777874857 | 13.89° C | 91% | 975.2 hPa | 0 mm | - | - | - |
| 1777871257 | 13.89° C | 92% | 975.1 hPa | 0 mm | - | - | - |
| 1777867656 | 13.89° C | 93% | 975.3 hPa | 0 mm | - | - | - |
| 1777864057 | 15.56° C | 93% | 974.8 hPa | 0 mm | - | - | - |
| 1777860456 | 15° C | 95% | 975.1 hPa | 0 mm | - | - | - |
| 1777856856 | 15.56° C | 94% | 974.6 hPa | 0 mm | - | - | - |
| 1777853255 | 16.67° C | 93% | 973.9 hPa | 0 mm | - | - | - |
| 1777849654 | 16.11° C | 98% | 974.1 hPa | 0 mm | - | - | - |
* Rain latest hour (hover to see other rain measurements)
** Current wind speed in m/s (hover to see current wind gust speed)